Los Angeles, California
Traffic Map
Current Weather Conditions
Los Angeles, California
Clear
Clear
69°
Feels Like: 69°
Wind Chill: 69° Ceiling: Unl
Heat Index: 69° Visibility: 10mi
Dew Point: 53° Wind: 0mph
Humidity: 57% Direction: ° ()
Pressure: 29.96in Gusts: 0mph
Raw Report DataKCQT 250647Z AUTO 00000KT 10SM CLR 21/12 A2996 RMK AO2 SLP140 T02060117
Traffic Incident Summary
Active as of:
Severity:
Category:
InformationThere was an issue retrieving the traffic information for this location. Please try a different location or try again shortly.
Advertisements
Track Severe Weather on mobile